createdAt,value
2023-10-22T00:00:22.927Z,1.47
2023-10-22T00:02:50.002Z,1.80
2023-10-22T00:05:16.915Z,1.50
2023-10-22T00:07:43.823Z,1.40
2023-10-22T00:10:10.755Z,1.70
2023-10-22T00:12:37.641Z,1.60
2023-10-22T00:15:05.140Z,1.60
2023-10-22T00:17:32.136Z,1.90
2023-10-22T00:19:59.062Z,1.60
2023-10-22T00:22:25.915Z,1.90
2023-10-22T00:24:53.240Z,1.70
2023-10-22T00:27:20.248Z,1.40
2023-10-22T00:29:47.207Z,1.57
2023-10-22T00:32:14.536Z,1.53
2023-10-22T00:34:41.683Z,1.60
2023-10-22T00:37:08.854Z,1.50
2023-10-22T00:39:36.024Z,1.40
2023-10-22T00:42:03.451Z,1.70
2023-10-22T00:44:30.382Z,1.80
2023-10-22T00:46:57.956Z,1.70
2023-10-22T00:49:25.353Z,1.53
2023-10-22T00:51:52.383Z,1.80
2023-10-22T00:54:20.982Z,1.70
2023-10-22T00:56:51.261Z,1.70
2023-10-22T00:59:18.992Z,1.33
2023-10-22T01:01:45.831Z,1.40
2023-10-22T01:04:13.845Z,1.80
2023-10-22T01:06:40.971Z,1.13
2023-10-22T01:09:11.225Z,1.60
2023-10-22T01:11:55.509Z,1.33
2023-10-22T01:14:22.488Z,1.50
2023-10-22T01:16:49.403Z,1.23
2023-10-22T01:19:16.266Z,1.30
2023-10-22T01:21:43.207Z,1.17
2023-10-22T01:24:10.483Z,1.30
2023-10-22T01:26:45.213Z,1.33
2023-10-22T01:29:12.562Z,1.30
2023-10-22T01:31:39.504Z,1.40
2023-10-22T01:34:07.114Z,1.30
2023-10-22T01:36:33.963Z,1.20
2023-10-22T01:39:00.868Z,1.20
2023-10-22T01:41:27.807Z,1.10
2023-10-22T01:43:55.041Z,1.30
2023-10-22T01:46:22.139Z,1.20
2023-10-22T01:48:49.224Z,1.17
2023-10-22T01:51:16.203Z,1.10
2023-10-22T01:53:43.852Z,1.17
2023-10-22T01:56:10.868Z,1.07
2023-10-22T01:58:38.039Z,1.20
2023-10-22T02:01:05.439Z,1.10
2023-10-22T02:03:35.708Z,1.20
2023-10-22T02:06:13.472Z,1.10
2023-10-22T02:08:42.135Z,0.90
2023-10-22T02:11:09.278Z,1.00
2023-10-22T02:13:36.552Z,1.10
2023-10-22T02:16:03.630Z,1.07
2023-10-22T02:18:31.039Z,1.07
2023-10-22T02:21:01.859Z,1.00
2023-10-22T02:23:28.908Z,0.90
2023-10-22T02:25:56.236Z,1.17
2023-10-22T02:28:23.358Z,1.10
2023-10-22T02:30:50.274Z,1.00
2023-10-22T02:33:17.692Z,0.97
2023-10-22T02:35:46.576Z,0.90
2023-10-22T02:38:16.432Z,0.90
2023-10-22T02:40:45.337Z,1.00
2023-10-22T02:43:12.786Z,1.10
2023-10-22T02:45:49.620Z,1.10
2023-10-22T02:48:16.709Z,0.80
2023-10-22T02:50:44.099Z,0.90
2023-10-22T02:53:11.799Z,0.90
2023-10-22T02:55:38.936Z,0.80
2023-10-22T02:58:06.624Z,0.80
2023-10-22T03:00:37.805Z,1.10
2023-10-22T03:03:05.341Z,1.07
2023-10-22T03:05:34.207Z,0.70
2023-10-22T03:08:04.798Z,1.00
2023-10-22T03:10:31.771Z,1.07
2023-10-22T03:13:00.957Z,0.90
2023-10-22T03:15:28.828Z,0.90
2023-10-22T03:17:58.130Z,0.80
2023-10-22T03:20:25.689Z,0.93
2023-10-22T03:22:53.162Z,0.90
2023-10-22T03:25:22.763Z,0.97
2023-10-22T03:27:49.972Z,1.00
2023-10-22T03:30:16.945Z,0.93
2023-10-22T03:32:43.994Z,0.90
2023-10-22T03:35:10.883Z,1.00
2023-10-22T03:37:37.802Z,0.90
2023-10-22T03:40:06.182Z,0.90
2023-10-22T03:42:33.111Z,0.80
2023-10-22T03:45:01.199Z,0.83
2023-10-22T03:47:28.236Z,0.90
2023-10-22T03:49:55.495Z,0.87
2023-10-22T03:52:29.577Z,0.93
2023-10-22T03:54:57.957Z,0.90
2023-10-22T03:57:25.129Z,1.03
2023-10-22T03:59:52.242Z,0.70
2023-10-22T04:02:19.500Z,0.80
2023-10-22T04:04:46.446Z,0.87
2023-10-22T04:07:13.497Z,0.90
2023-10-22T04:09:40.357Z,0.70
2023-10-22T04:12:07.662Z,0.67
2023-10-22T04:14:37.917Z,0.80
2023-10-22T04:17:05.048Z,0.80
2023-10-22T04:19:32.541Z,0.80
2023-10-22T04:21:59.397Z,0.80
2023-10-22T04:24:26.248Z,0.70
2023-10-22T04:26:53.181Z,0.70
2023-10-22T04:29:20.041Z,0.70
2023-10-22T04:31:46.878Z,0.70
2023-10-22T04:34:13.740Z,0.80
2023-10-22T04:36:40.648Z,0.70
2023-10-22T04:39:07.591Z,0.80
2023-10-22T04:41:34.457Z,0.80
2023-10-22T04:44:01.296Z,0.70
2023-10-22T04:46:28.211Z,0.70
2023-10-22T04:48:55.520Z,0.83
2023-10-22T04:51:23.013Z,0.80
2023-10-22T04:53:50.145Z,0.90
2023-10-22T04:56:17.147Z,0.70
2023-10-22T04:58:44.154Z,0.80
2023-10-22T05:01:12.279Z,0.80
2023-10-22T05:03:39.920Z,0.70
2023-10-22T05:06:11.260Z,0.77
2023-10-22T05:08:40.572Z,0.90
2023-10-22T05:11:16.899Z,0.70
2023-10-22T05:13:45.596Z,0.60
2023-10-22T05:16:12.914Z,0.70
2023-10-22T05:18:40.831Z,0.70
2023-10-22T05:21:08.641Z,0.77
2023-10-22T05:23:36.325Z,0.70
2023-10-22T05:26:12.696Z,0.80
2023-10-22T05:28:40.410Z,0.80
2023-10-22T05:31:20.345Z,0.80
2023-10-22T05:33:47.670Z,1.00
2023-10-22T05:36:20.565Z,0.87
2023-10-22T05:38:49.034Z,1.13
2023-10-22T05:41:24.144Z,0.80
2023-10-22T05:44:02.607Z,0.80
2023-10-22T05:46:34.572Z,0.77
2023-10-22T05:49:05.193Z,0.90
2023-10-22T05:51:33.927Z,1.00
2023-10-22T05:54:01.013Z,0.80
2023-10-22T05:56:29.645Z,0.80
2023-10-22T05:58:56.972Z,0.80
2023-10-22T06:01:24.739Z,0.97
2023-10-22T06:03:51.985Z,0.80
2023-10-22T06:06:20.941Z,1.03
2023-10-22T06:08:48.758Z,0.70
2023-10-22T06:11:15.978Z,0.93
2023-10-22T06:13:42.933Z,1.00
2023-10-22T06:16:11.164Z,0.87
2023-10-22T06:18:38.960Z,0.80
2023-10-22T06:21:17.146Z,1.07
2023-10-22T06:23:44.671Z,1.10
2023-10-22T06:26:12.808Z,1.00
2023-10-22T06:28:40.864Z,0.80
2023-10-22T06:31:16.758Z,1.00
2023-10-22T06:33:43.947Z,0.90
2023-10-22T06:36:25.653Z,1.03
2023-10-22T06:38:52.721Z,0.90
2023-10-22T06:41:23.123Z,0.83
2023-10-22T06:43:50.064Z,0.70
2023-10-22T06:46:20.550Z,0.80
2023-10-22T06:48:49.201Z,0.80
2023-10-22T06:51:17.260Z,0.80
2023-10-22T06:53:47.657Z,1.03
2023-10-22T06:56:15.207Z,0.93
2023-10-22T06:58:42.340Z,0.90
2023-10-22T07:01:11.914Z,0.77
2023-10-22T07:03:43.155Z,0.80
2023-10-22T07:06:11.292Z,0.90
2023-10-22T07:08:38.321Z,1.00
2023-10-22T07:11:05.251Z,0.60
2023-10-22T07:13:32.193Z,1.07
2023-10-22T07:15:59.144Z,0.80
2023-10-22T07:18:26.188Z,0.70
2023-10-22T07:20:53.347Z,0.70
2023-10-22T07:23:20.221Z,0.90
2023-10-22T07:25:48.015Z,0.70
2023-10-22T07:28:17.238Z,0.90
2023-10-22T07:30:48.789Z,0.93
2023-10-22T07:33:17.661Z,1.03
2023-10-22T07:36:06.797Z,1.10
2023-10-22T07:38:34.030Z,0.90
2023-10-22T07:41:01.698Z,0.80
2023-10-22T07:43:30.330Z,0.80
2023-10-22T07:46:01.430Z,0.80
2023-10-22T07:48:28.698Z,1.10
2023-10-22T07:50:55.665Z,1.30
2023-10-22T07:53:22.734Z,1.10
2023-10-22T07:55:49.640Z,1.00
2023-10-22T07:58:16.464Z,0.97
2023-10-22T08:00:43.314Z,0.90
2023-10-22T08:03:10.352Z,0.90
2023-10-22T08:05:37.336Z,0.87
2023-10-22T08:08:04.499Z,0.80
2023-10-22T08:10:31.425Z,1.00
2023-10-22T08:12:58.270Z,1.03
2023-10-22T08:15:25.214Z,1.00
2023-10-22T08:17:52.163Z,0.60
2023-10-22T08:20:19.068Z,1.03
2023-10-22T08:22:46.001Z,0.93
2023-10-22T08:25:12.879Z,1.00
2023-10-22T08:27:39.748Z,0.87
2023-10-22T08:30:07.591Z,0.80
2023-10-22T08:32:35.672Z,0.93
2023-10-22T08:35:07.666Z,0.90
2023-10-22T08:37:34.540Z,0.90
2023-10-22T08:40:01.685Z,0.93
2023-10-22T08:42:30.502Z,0.67
2023-10-22T08:44:57.495Z,0.83
2023-10-22T08:47:24.405Z,0.97
2023-10-22T08:49:53.292Z,1.00
2023-10-22T08:52:20.240Z,0.83
2023-10-22T08:54:47.604Z,0.80
2023-10-22T08:57:16.317Z,1.40
2023-10-22T08:59:45.735Z,1.20
2023-10-22T09:02:14.447Z,0.90
2023-10-22T09:04:41.821Z,0.90
2023-10-22T09:07:09.105Z,0.80
2023-10-22T09:09:38.445Z,1.00
2023-10-22T09:12:09.969Z,0.70
2023-10-22T09:14:37.889Z,0.87
2023-10-22T09:17:19.510Z,0.80
2023-10-22T09:19:48.996Z,1.00
2023-10-22T09:22:27.108Z,0.80
2023-10-22T09:24:57.932Z,1.00
2023-10-22T09:27:30.416Z,0.80
2023-10-22T09:30:00.260Z,0.90
2023-10-22T09:32:30.096Z,0.83
2023-10-22T09:35:14.572Z,1.00
2023-10-22T09:37:52.282Z,0.97
2023-10-22T09:40:23.735Z,0.90
2023-10-22T09:42:51.343Z,0.90
2023-10-22T09:45:24.455Z,0.93
2023-10-22T09:48:10.743Z,0.90
2023-10-22T09:50:46.840Z,1.57
2023-10-22T09:53:18.572Z,2.00
2023-10-22T09:55:50.485Z,1.50
2023-10-22T09:58:19.551Z,1.40
2023-10-22T10:00:51.718Z,1.00
2023-10-22T10:03:22.412Z,1.23
2023-10-22T10:05:50.121Z,1.20
2023-10-22T10:08:18.920Z,1.00
2023-10-22T10:10:47.217Z,1.00
2023-10-22T10:13:14.899Z,1.00
2023-10-22T10:15:41.835Z,0.80
2023-10-22T10:18:09.077Z,1.10
2023-10-22T10:20:40.190Z,0.87
2023-10-22T10:23:13.752Z,1.17
2023-10-22T10:25:41.500Z,1.00
2023-10-22T10:28:11.997Z,1.77
2023-10-22T10:30:39.526Z,1.33
2023-10-22T10:33:15.079Z,1.20
2023-10-22T10:35:50.495Z,1.17
2023-10-22T10:38:19.829Z,1.10
2023-10-22T10:40:56.559Z,1.00
2023-10-22T10:44:10.667Z,0.93
2023-10-22T10:46:37.652Z,1.00
2023-10-22T10:49:04.831Z,1.07
2023-10-22T10:51:32.377Z,1.10
2023-10-22T10:54:02.380Z,0.90
2023-10-22T10:56:49.538Z,1.20
2023-10-22T10:59:31.609Z,1.10
2023-10-22T11:02:15.133Z,0.90
2023-10-22T11:04:47.345Z,0.90
2023-10-22T11:09:46.903Z,1.10
2023-10-22T11:12:14.301Z,0.93
2023-10-22T11:14:41.452Z,0.90
2023-10-22T11:17:09.035Z,0.80
2023-10-22T11:19:36.104Z,1.23
2023-10-22T11:22:03.576Z,1.10
2023-10-22T11:24:35.645Z,0.90
2023-10-22T11:27:05.488Z,1.00
2023-10-22T11:29:44.170Z,1.20
2023-10-22T11:32:17.115Z,1.00
2023-10-22T11:35:01.832Z,1.00
2023-10-22T11:37:38.324Z,0.70
2023-10-22T11:40:32.035Z,1.10
2023-10-22T11:43:06.613Z,1.00
2023-10-22T11:45:37.508Z,0.83
2023-10-22T11:48:16.732Z,0.77
2023-10-22T11:50:49.264Z,1.17
2023-10-22T11:53:18.097Z,0.93
2023-10-22T11:55:48.675Z,0.70
2023-10-22T11:58:25.933Z,0.90
2023-10-22T12:00:53.331Z,0.97
2023-10-22T12:03:20.488Z,0.80
2023-10-22T12:05:47.466Z,0.93
2023-10-22T12:08:14.815Z,1.53
2023-10-22T12:10:42.320Z,1.37
2023-10-22T12:13:11.588Z,1.10
2023-10-22T12:15:38.690Z,1.00
2023-10-22T12:18:07.204Z,1.10
2023-10-22T12:20:34.419Z,1.07
2023-10-22T12:23:01.339Z,1.00
2023-10-22T12:25:32.083Z,0.73
2023-10-22T12:27:59.874Z,0.97
2023-10-22T12:30:27.900Z,0.90
2023-10-22T12:32:55.609Z,0.70
2023-10-22T12:35:24.119Z,0.93
2023-10-22T12:37:52.073Z,0.70
2023-10-22T12:40:19.370Z,0.90
2023-10-22T12:42:46.345Z,0.90
2023-10-22T12:45:14.027Z,0.80
2023-10-22T12:47:41.560Z,0.90
2023-10-22T12:50:09.578Z,0.80
2023-10-22T12:52:36.970Z,1.10
2023-10-22T12:55:06.099Z,0.90
2023-10-22T12:57:33.855Z,0.90
2023-10-22T13:00:04.416Z,0.93
2023-10-22T13:02:34.574Z,0.70
2023-10-22T13:05:01.619Z,0.90
2023-10-22T13:07:28.655Z,0.80
2023-10-22T13:09:55.713Z,0.80
2023-10-22T13:12:22.614Z,1.93
2023-10-22T13:14:51.243Z,0.93
2023-10-22T13:17:18.472Z,0.97
2023-10-22T13:19:46.086Z,0.70
2023-10-22T13:22:13.175Z,0.80
2023-10-22T13:24:40.325Z,0.80
2023-10-22T13:27:07.387Z,0.80
2023-10-22T13:29:34.263Z,0.80
2023-10-22T13:32:01.147Z,0.80
2023-10-22T13:34:29.252Z,0.87
2023-10-22T13:36:56.103Z,0.80
2023-10-22T13:39:23.022Z,0.60
2023-10-22T13:41:49.960Z,0.70
2023-10-22T13:44:16.855Z,0.60
2023-10-22T13:46:43.747Z,0.77
2023-10-22T13:49:10.788Z,0.90
2023-10-22T13:51:39.000Z,0.80
2023-10-22T13:54:06.381Z,0.90
2023-10-22T13:56:33.305Z,0.83
2023-10-22T13:59:01.433Z,0.80
2023-10-22T14:01:28.367Z,0.57
2023-10-22T14:03:55.342Z,0.90
2023-10-22T14:06:23.500Z,1.20
2023-10-22T14:08:50.450Z,1.20
2023-10-22T14:11:17.393Z,0.83
2023-10-22T14:13:44.319Z,0.97
2023-10-22T14:16:11.190Z,0.73
2023-10-22T14:18:38.178Z,0.70
2023-10-22T14:21:12.191Z,0.90
2023-10-22T14:23:39.288Z,0.90
2023-10-22T14:26:06.509Z,0.90
2023-10-22T14:28:33.714Z,0.67
2023-10-22T14:31:05.279Z,0.90
2023-10-22T14:33:32.412Z,1.80
2023-10-22T14:36:04.746Z,1.10
2023-10-22T14:38:32.620Z,0.90
2023-10-22T14:41:03.064Z,0.70
2023-10-22T14:43:30.844Z,0.70
2023-10-22T14:46:05.118Z,0.80
2023-10-22T14:48:33.533Z,1.00
2023-10-22T14:51:04.088Z,0.70
2023-10-22T14:53:31.101Z,0.90
2023-10-22T14:55:59.992Z,1.00
2023-10-22T14:58:28.223Z,0.60
2023-10-22T15:00:55.750Z,0.70
2023-10-22T15:03:22.708Z,0.87
2023-10-22T15:05:50.618Z,0.70
2023-10-22T15:08:18.048Z,1.47
2023-10-22T15:10:46.511Z,1.17
2023-10-22T15:13:14.239Z,0.97
2023-10-22T15:15:46.403Z,0.90
2023-10-22T15:18:15.468Z,0.97
2023-10-22T15:20:48.119Z,1.00
2023-10-22T15:23:16.144Z,0.90
2023-10-22T15:25:48.654Z,0.83
2023-10-22T15:28:16.872Z,1.00
2023-10-22T15:30:44.558Z,0.80
2023-10-22T15:33:12.039Z,0.70
2023-10-22T15:35:39.382Z,2.50
2023-10-22T15:38:08.110Z,1.00
2023-10-22T15:40:35.736Z,1.03
2023-10-22T15:43:03.709Z,1.03
2023-10-22T15:45:31.454Z,0.90
2023-10-22T15:48:01.224Z,1.00
2023-10-22T15:50:29.653Z,1.00
2023-10-22T15:52:56.567Z,0.97
2023-10-22T15:55:24.297Z,0.90
2023-10-22T15:57:54.249Z,0.80
2023-10-22T16:00:22.712Z,0.80
2023-10-22T16:02:49.982Z,0.93
2023-10-22T16:05:18.254Z,0.80
2023-10-22T16:07:45.385Z,0.90
2023-10-22T16:10:12.670Z,0.70
2023-10-22T16:12:40.758Z,0.90
2023-10-22T16:15:09.013Z,0.93
2023-10-22T16:17:40.917Z,0.90
2023-10-22T16:20:14.002Z,1.00
2023-10-22T16:22:41.478Z,1.00
2023-10-22T16:25:08.967Z,0.90
2023-10-22T16:27:36.820Z,1.10
2023-10-22T16:30:04.912Z,1.20
2023-10-22T16:32:32.282Z,1.10
2023-10-22T16:34:59.339Z,1.27
2023-10-22T16:37:26.202Z,0.90
2023-10-22T16:39:53.136Z,1.10
2023-10-22T16:42:20.119Z,1.10
2023-10-22T16:44:51.876Z,1.20
2023-10-22T16:47:19.494Z,1.27
2023-10-22T16:49:46.661Z,1.40
2023-10-22T16:52:13.600Z,1.20
2023-10-22T16:54:41.528Z,1.27
2023-10-22T16:57:08.668Z,1.37
2023-10-22T16:59:35.627Z,1.20
2023-10-22T17:02:02.828Z,1.27
2023-10-22T17:04:29.767Z,1.30
2023-10-22T17:06:56.633Z,1.33
2023-10-22T17:09:25.047Z,1.60
2023-10-22T17:11:51.975Z,1.50
2023-10-22T17:14:18.806Z,1.50
2023-10-22T17:16:45.881Z,1.63
2023-10-22T17:19:12.984Z,1.60
2023-10-22T17:25:49.748Z,2.63
2023-10-22T17:28:20.818Z,2.87
2023-10-22T17:30:48.251Z,3.20
2023-10-22T17:33:15.370Z,3.57
2023-10-22T17:35:42.273Z,3.53
2023-10-22T17:38:09.163Z,3.47
2023-10-22T17:40:41.085Z,4.03
2023-10-22T17:43:09.064Z,4.43
2023-10-22T17:45:42.813Z,4.67
2023-10-22T17:48:09.996Z,4.73
2023-10-22T17:50:37.704Z,4.77
2023-10-22T17:53:19.656Z,4.70
2023-10-22T17:56:10.248Z,4.63
2023-10-22T17:58:39.116Z,4.63
2023-10-22T18:01:06.404Z,4.60
2023-10-22T18:03:35.571Z,4.40
2023-10-22T18:06:03.842Z,4.97
2023-10-22T18:08:31.014Z,4.50
2023-10-22T18:11:00.011Z,4.10
2023-10-22T18:13:28.823Z,3.97
2023-10-22T18:15:57.660Z,3.90
2023-10-22T18:18:25.538Z,3.63
2023-10-22T18:20:56.315Z,3.80
2023-10-22T18:23:24.440Z,3.97
2023-10-22T18:26:03.128Z,3.43
2023-10-22T18:28:31.554Z,4.00
2023-10-22T18:30:58.679Z,4.27
2023-10-22T18:33:25.974Z,4.10
2023-10-22T18:35:53.190Z,4.60
2023-10-22T18:38:20.377Z,3.77
2023-10-22T18:40:51.457Z,4.10
2023-10-22T18:43:18.738Z,4.10
2023-10-22T18:45:46.096Z,3.80
2023-10-22T18:48:14.273Z,3.60
2023-10-22T18:50:41.352Z,3.80
2023-10-22T18:53:08.288Z,3.83
2023-10-22T18:55:35.262Z,3.60
2023-10-22T18:58:02.163Z,4.30
2023-10-22T19:00:29.230Z,4.20
2023-10-22T19:02:56.309Z,3.83
2023-10-22T19:05:23.411Z,4.10
2023-10-22T19:07:50.350Z,3.43
2023-10-22T19:10:18.287Z,3.60
2023-10-22T19:12:45.991Z,3.53
2023-10-22T19:15:13.441Z,3.40
2023-10-22T19:17:42.788Z,3.27
2023-10-22T19:20:10.686Z,3.53
2023-10-22T19:22:37.998Z,3.43
2023-10-22T19:25:05.753Z,3.20
2023-10-22T19:27:36.413Z,3.33
2023-10-22T19:30:06.352Z,3.40
2023-10-22T19:32:33.614Z,3.57
2023-10-22T19:35:00.729Z,3.50
2023-10-22T19:37:27.677Z,3.50
2023-10-22T19:39:56.317Z,3.83
2023-10-22T19:42:26.548Z,3.53
2023-10-22T19:44:56.368Z,3.67
2023-10-22T19:47:23.388Z,3.50
2023-10-22T19:49:50.413Z,3.80
2023-10-22T19:52:33.858Z,3.67
2023-10-22T19:55:05.019Z,3.43
2023-10-22T19:57:31.928Z,3.47
2023-10-22T19:59:58.924Z,3.60
2023-10-22T20:02:25.856Z,3.57
2023-10-22T20:04:54.361Z,3.40
2023-10-22T20:07:21.357Z,3.40
2023-10-22T20:09:48.395Z,3.40
2023-10-22T20:12:15.546Z,3.20
2023-10-22T20:14:42.921Z,3.40
2023-10-22T20:17:09.800Z,4.00
2023-10-22T20:19:36.767Z,3.60
2023-10-22T20:22:03.985Z,3.40
2023-10-22T20:24:34.130Z,3.27
2023-10-22T20:27:02.077Z,3.70
2023-10-22T20:29:29.120Z,3.70
2023-10-22T20:31:56.149Z,3.93
2023-10-22T20:34:24.792Z,3.50
2023-10-22T20:36:53.611Z,3.67
2023-10-22T20:39:20.489Z,3.37
2023-10-22T20:41:47.593Z,3.73
2023-10-22T20:44:14.594Z,3.80
2023-10-22T20:46:41.589Z,4.10
2023-10-22T20:49:08.566Z,3.60
2023-10-22T20:51:36.380Z,3.80
2023-10-22T20:54:03.905Z,3.70
2023-10-22T20:56:30.852Z,4.13
2023-10-22T20:58:57.702Z,3.70
2023-10-22T21:01:25.390Z,4.20
2023-10-22T21:03:53.679Z,4.13
2023-10-22T21:06:21.431Z,4.30
2023-10-22T21:08:48.425Z,4.23
2023-10-22T21:11:17.523Z,4.50
2023-10-22T21:13:46.352Z,4.37
2023-10-22T21:16:14.879Z,4.33
2023-10-22T21:18:42.616Z,4.33
2023-10-22T21:21:09.900Z,4.20
2023-10-22T21:23:39.590Z,5.00
2023-10-22T21:26:07.032Z,4.90
2023-10-22T21:28:34.190Z,4.93
2023-10-22T21:31:01.185Z,4.77
2023-10-22T21:33:28.460Z,4.87
2023-10-22T21:36:07.715Z,4.50
2023-10-22T21:38:35.316Z,4.80
2023-10-22T21:41:02.630Z,4.83
2023-10-22T21:43:31.467Z,5.10
2023-10-22T21:46:12.586Z,4.97
2023-10-22T21:48:40.817Z,4.73
2023-10-22T21:51:08.758Z,4.90
2023-10-22T21:53:36.185Z,5.50
2023-10-22T21:56:04.530Z,5.03
2023-10-22T21:58:34.358Z,4.90
2023-10-22T22:01:02.053Z,5.17
2023-10-22T22:03:29.808Z,5.00
2023-10-22T22:05:57.619Z,5.50
2023-10-22T22:08:24.510Z,4.83
2023-10-22T22:10:54.324Z,4.77
2023-10-22T22:13:21.179Z,5.00
2023-10-22T22:15:48.247Z,4.87
2023-10-22T22:18:15.321Z,4.97
2023-10-22T22:20:42.253Z,4.90
2023-10-22T22:23:09.137Z,4.37
2023-10-22T22:25:44.339Z,4.30
2023-10-22T22:28:13.816Z,4.60
2023-10-22T22:30:40.804Z,4.50
2023-10-22T22:33:07.860Z,4.50
2023-10-22T22:35:34.826Z,4.30
2023-10-22T22:38:01.698Z,5.00
2023-10-22T22:40:28.651Z,4.40
2023-10-22T22:42:55.524Z,4.63
2023-10-22T22:45:22.435Z,4.60
2023-10-22T22:47:49.436Z,4.83
2023-10-22T22:50:16.400Z,3.90
2023-10-22T22:52:43.343Z,4.20
2023-10-22T22:55:10.982Z,4.23
2023-10-22T22:57:37.887Z,4.43
2023-10-22T23:00:05.950Z,4.47
2023-10-22T23:02:34.355Z,4.03
2023-10-22T23:05:01.814Z,4.20
2023-10-22T23:07:30.103Z,4.60
2023-10-22T23:09:56.958Z,4.20
2023-10-22T23:12:24.444Z,3.77
2023-10-22T23:14:52.662Z,3.90
2023-10-22T23:17:19.681Z,3.93
2023-10-22T23:19:47.141Z,4.33
2023-10-22T23:22:14.087Z,4.17
2023-10-22T23:24:41.266Z,3.80
2023-10-22T23:27:08.459Z,3.83
2023-10-22T23:29:35.326Z,3.67
2023-10-22T23:32:02.178Z,3.97
2023-10-22T23:34:29.063Z,3.80
2023-10-22T23:36:56.049Z,3.93
2023-10-22T23:39:23.046Z,3.63
2023-10-22T23:41:49.948Z,3.30
2023-10-22T23:44:16.853Z,3.50
2023-10-22T23:46:43.712Z,3.50
2023-10-22T23:49:10.624Z,3.30
2023-10-22T23:51:37.549Z,3.33
2023-10-22T23:54:04.648Z,3.70
2023-10-22T23:56:31.518Z,3.33
2023-10-22T23:58:58.393Z,3.30
